createdAt,value
2018-07-27T00:01:17.808Z,64.60
2018-07-27T00:03:46.061Z,64.60
2018-07-27T00:06:14.815Z,64.90
2018-07-27T00:08:43.656Z,64.60
2018-07-27T00:11:12.625Z,65.00
2018-07-27T00:13:40.875Z,65.30
2018-07-27T00:16:09.146Z,65.50
2018-07-27T00:18:37.446Z,65.60
2018-07-27T00:21:05.729Z,66.20
2018-07-27T00:23:33.989Z,66.40
2018-07-27T00:26:02.268Z,66.50
2018-07-27T00:28:30.558Z,66.60
2018-07-27T00:30:58.830Z,66.40
2018-07-27T00:33:27.084Z,66.60
2018-07-27T00:35:55.338Z,66.40
2018-07-27T00:38:23.588Z,66.90
2018-07-27T00:40:52.392Z,66.70
2018-07-27T00:43:21.010Z,66.80
2018-07-27T00:45:49.323Z,66.90
2018-07-27T00:48:17.583Z,67.10
2018-07-27T00:50:45.863Z,67.30
2018-07-27T00:53:14.114Z,67.40
2018-07-27T00:55:42.410Z,67.60
2018-07-27T00:58:10.656Z,67.40
2018-07-27T01:00:38.921Z,67.50
2018-07-27T01:03:08.344Z,67.50
2018-07-27T01:05:37.646Z,67.70
2018-07-27T01:08:06.486Z,67.70
2018-07-27T01:10:35.241Z,68.00
2018-07-27T01:15:31.621Z,68.30
2018-07-27T01:17:59.874Z,68.50
2018-07-27T01:20:29.089Z,68.80
2018-07-27T01:22:57.486Z,68.40
2018-07-27T01:25:25.845Z,68.70
2018-07-27T01:27:54.123Z,68.80
2018-07-27T01:30:22.413Z,68.80
2018-07-27T01:32:50.662Z,68.70
2018-07-27T01:35:18.933Z,68.70
2018-07-27T01:37:47.205Z,69.10
2018-07-27T01:40:15.966Z,69.30
2018-07-27T01:42:44.302Z,69.60
2018-07-27T01:45:12.578Z,70.50
2018-07-27T01:47:40.838Z,70.30
2018-07-27T01:50:09.129Z,70.00
2018-07-27T01:52:37.392Z,69.50
2018-07-27T01:55:05.920Z,70.20
2018-07-27T01:57:34.182Z,70.60
2018-07-27T02:00:02.454Z,70.40
2018-07-27T02:02:30.742Z,70.80
2018-07-27T02:04:59.017Z,70.90
2018-07-27T02:07:27.323Z,70.90
2018-07-27T02:09:55.850Z,71.20
2018-07-27T02:12:24.458Z,71.00
2018-07-27T02:14:52.836Z,71.00
2018-07-27T02:17:21.106Z,71.10
2018-07-27T02:19:49.364Z,71.30
2018-07-27T02:22:17.613Z,71.60
2018-07-27T02:24:45.865Z,71.90
2018-07-27T02:27:14.117Z,72.10
2018-07-27T02:29:42.776Z,72.00
2018-07-27T02:32:11.669Z,72.30
2018-07-27T02:34:40.221Z,72.30
2018-07-27T02:37:08.899Z,72.40
2018-07-27T02:39:38.766Z,72.80
2018-07-27T02:42:07.077Z,72.90
2018-07-27T02:44:35.421Z,73.50
2018-07-27T02:47:03.691Z,74.00
2018-07-27T02:49:31.931Z,74.60
2018-07-27T02:52:00.209Z,74.40
2018-07-27T02:54:28.449Z,74.20
2018-07-27T02:59:25.809Z,74.80
2018-07-27T03:04:22.301Z,75.70
2018-07-27T03:06:50.754Z,75.20
2018-07-27T03:11:48.206Z,75.70
2018-07-27T03:14:16.465Z,76.00
2018-07-27T03:16:44.778Z,75.90
2018-07-27T03:19:13.046Z,76.30
2018-07-27T03:21:41.281Z,76.80
2018-07-27T03:24:09.739Z,76.90
2018-07-27T03:26:37.997Z,77.40
2018-07-27T03:29:06.381Z,77.60
2018-07-27T03:31:34.631Z,77.70
2018-07-27T03:34:02.901Z,78.00
2018-07-27T03:36:31.149Z,78.30
2018-07-27T03:38:59.473Z,78.50
2018-07-27T03:43:55.768Z,79.40
2018-07-27T03:46:24.014Z,79.30
2018-07-27T03:48:53.030Z,80.00
2018-07-27T03:51:23.986Z,80.30
2018-07-27T03:53:52.325Z,80.90
2018-07-27T03:56:20.591Z,81.50
2018-07-27T03:58:48.866Z,81.90
2018-07-27T04:01:17.113Z,81.80
2018-07-27T04:03:45.389Z,83.20
2018-07-27T04:06:13.658Z,82.50
2018-07-27T04:08:41.965Z,82.90
2018-07-27T04:11:10.197Z,83.20
2018-07-27T04:13:38.459Z,83.50
2018-07-27T04:16:06.753Z,84.00
2018-07-27T04:18:35.092Z,84.40
2018-07-27T04:21:03.325Z,84.40
2018-07-27T04:23:31.582Z,84.40
2018-07-27T04:25:59.821Z,85.10
2018-07-27T04:28:28.081Z,85.30
2018-07-27T04:30:56.356Z,86.30
2018-07-27T04:33:24.643Z,86.10
2018-07-27T04:35:52.963Z,86.70
2018-07-27T04:38:21.189Z,86.40
2018-07-27T04:40:49.438Z,86.70
2018-07-27T04:43:17.722Z,87.80
2018-07-27T04:45:46.548Z,87.90
2018-07-27T04:48:14.869Z,87.50
2018-07-27T04:50:43.133Z,86.70
2018-07-27T04:53:11.837Z,86.30
2018-07-27T04:55:40.140Z,86.30
2018-07-27T04:58:08.378Z,86.60
2018-07-27T05:00:36.730Z,85.50
2018-07-27T05:03:05.442Z,84.40
2018-07-27T05:05:33.746Z,84.90
2018-07-27T05:08:02.006Z,83.90
2018-07-27T05:10:35.638Z,84.40
2018-07-27T05:13:04.035Z,84.30
2018-07-27T05:15:32.361Z,85.10
2018-07-27T05:18:00.598Z,86.40
2018-07-27T05:20:28.874Z,85.60
2018-07-27T05:25:25.857Z,86.00
2018-07-27T05:30:22.112Z,86.00
2018-07-27T05:32:50.361Z,86.20
2018-07-27T05:35:19.748Z,84.30
2018-07-27T05:37:48.256Z,85.30
2018-07-27T05:40:16.949Z,84.30
2018-07-27T05:42:45.509Z,83.50
2018-07-27T05:45:14.507Z,83.60
2018-07-27T05:47:43.449Z,82.90
2018-07-27T05:50:12.147Z,83.10
2018-07-27T05:52:40.450Z,83.10
2018-07-27T05:55:08.746Z,82.20
2018-07-27T05:57:36.998Z,81.90
2018-07-27T06:00:06.706Z,81.40
2018-07-27T06:02:34.970Z,81.30
2018-07-27T06:05:03.716Z,81.20
2018-07-27T06:07:32.006Z,80.00
2018-07-27T06:10:00.281Z,81.50
2018-07-27T06:12:29.489Z,79.90
2018-07-27T06:14:58.630Z,78.70
2018-07-27T06:17:26.877Z,77.80
2018-07-27T06:19:55.130Z,77.00
2018-07-27T06:22:24.658Z,76.40
2018-07-27T06:24:54.168Z,77.70
2018-07-27T06:27:22.626Z,76.20
2018-07-27T06:29:50.923Z,76.40
2018-07-27T06:32:19.608Z,75.00
2018-07-27T06:34:47.857Z,75.00
2018-07-27T06:37:16.873Z,74.20
2018-07-27T06:39:46.201Z,72.60
2018-07-27T06:42:14.972Z,72.70
2018-07-27T06:44:43.321Z,71.20
2018-07-27T06:47:11.577Z,71.20
2018-07-27T06:49:40.081Z,72.30
2018-07-27T06:54:36.388Z,71.30
2018-07-27T06:57:04.641Z,69.60
2018-07-27T06:59:32.895Z,69.80
2018-07-27T07:02:01.157Z,69.60
2018-07-27T07:06:57.534Z,70.50
2018-07-27T07:09:25.782Z,69.80
2018-07-27T07:11:54.896Z,68.80
2018-07-27T07:14:23.457Z,67.50
2018-07-27T07:16:51.937Z,68.00
2018-07-27T07:19:20.181Z,68.90
2018-07-27T07:21:49.306Z,67.90
2018-07-27T07:24:18.669Z,69.60
2018-07-27T07:26:46.985Z,68.10
2018-07-27T07:29:15.229Z,68.00
2018-07-27T07:31:43.909Z,68.20
2018-07-27T07:34:12.154Z,66.30
2018-07-27T07:36:41.270Z,65.40
2018-07-27T07:39:11.203Z,67.60
2018-07-27T07:41:39.649Z,66.80
2018-07-27T07:44:08.798Z,65.70
2018-07-27T07:46:37.469Z,65.80
2018-07-27T07:49:06.849Z,65.40
2018-07-27T07:51:36.381Z,65.00
2018-07-27T07:54:04.649Z,64.40
2018-07-27T07:56:33.550Z,64.00
2018-07-27T07:59:02.214Z,63.80
2018-07-27T08:01:30.622Z,62.60
2018-07-27T08:03:58.890Z,61.60
2018-07-27T08:06:27.209Z,60.90
2018-07-27T08:08:56.152Z,62.20
2018-07-27T08:11:24.629Z,62.00
2018-07-27T08:13:52.893Z,59.60
2018-07-27T08:16:21.124Z,56.70
2018-07-27T08:18:50.177Z,56.50
2018-07-27T08:21:23.869Z,55.80
2018-07-27T08:23:52.802Z,55.20
2018-07-27T08:27:08.700Z,53.10
2018-07-27T08:29:43.309Z,52.90
2018-07-27T08:32:11.625Z,52.20
2018-07-27T08:34:40.050Z,52.60
2018-07-27T08:37:08.759Z,52.10
2018-07-27T08:39:39.170Z,52.50
2018-07-27T08:42:07.390Z,52.20
2018-07-27T08:44:40.806Z,52.50
2018-07-27T08:47:09.657Z,54.40
2018-07-27T08:49:39.053Z,52.70
2018-07-27T08:52:07.334Z,55.30
2018-07-27T08:54:35.594Z,53.40
2018-07-27T08:57:03.967Z,53.00
2018-07-27T08:59:33.186Z,52.30
2018-07-27T09:02:01.505Z,52.60
2018-07-27T09:04:30.536Z,51.20
2018-07-27T09:06:58.791Z,50.20
2018-07-27T09:09:27.074Z,50.60
2018-07-27T09:11:55.318Z,50.30
2018-07-27T09:14:23.750Z,50.70
2018-07-27T09:16:52.018Z,48.30
2018-07-27T09:19:20.300Z,49.00
2018-07-27T09:21:48.592Z,48.50
2018-07-27T09:26:44.878Z,48.50
2018-07-27T09:29:15.148Z,48.50
2018-07-27T09:31:43.538Z,48.80
2018-07-27T09:36:39.826Z,48.10
2018-07-27T09:39:09.925Z,48.00
2018-07-27T09:41:38.287Z,48.00
2018-07-27T09:44:06.881Z,47.60
2018-07-27T09:46:35.722Z,47.50
2018-07-27T09:49:03.965Z,47.90
2018-07-27T09:51:32.261Z,48.30
2018-07-27T09:54:00.552Z,48.60
2018-07-27T09:56:29.462Z,47.30
2018-07-27T09:58:57.749Z,48.90
2018-07-27T10:01:27.612Z,47.50
2018-07-27T10:03:56.073Z,48.60
2018-07-27T10:06:25.193Z,47.80
2018-07-27T10:08:54.639Z,48.90
2018-07-27T10:11:22.925Z,45.00
2018-07-27T10:13:51.177Z,46.70
2018-07-27T10:16:19.454Z,47.60
2018-07-27T10:18:48.700Z,46.30
2018-07-27T10:21:17.375Z,47.80
2018-07-27T10:23:46.154Z,46.90
2018-07-27T10:26:14.873Z,47.80
2018-07-27T10:28:43.119Z,48.80
2018-07-27T10:31:11.412Z,48.00
2018-07-27T10:33:39.682Z,47.60
2018-07-27T10:36:08.054Z,47.10
2018-07-27T10:38:36.344Z,48.00
2018-07-27T10:41:04.598Z,46.10
2018-07-27T10:43:32.889Z,46.40
2018-07-27T10:46:01.150Z,45.70
2018-07-27T10:48:29.429Z,47.70
2018-07-27T10:50:57.693Z,47.40
2018-07-27T10:53:25.943Z,47.70
2018-07-27T10:55:54.533Z,48.40
2018-07-27T10:58:23.495Z,44.60
2018-07-27T11:00:52.121Z,47.00
2018-07-27T11:03:20.382Z,48.60
2018-07-27T11:05:48.640Z,50.40
2018-07-27T11:10:44.881Z,51.90
2018-07-27T11:13:13.372Z,51.10
2018-07-27T11:15:42.392Z,52.60
2018-07-27T11:18:11.165Z,52.00
2018-07-27T11:20:39.418Z,52.10
2018-07-27T11:23:07.818Z,52.30
2018-07-27T11:25:36.081Z,53.60
2018-07-27T11:28:04.313Z,53.90
2018-07-27T11:30:32.574Z,56.00
2018-07-27T11:33:00.825Z,54.20
2018-07-27T11:35:29.249Z,54.60
2018-07-27T11:37:57.506Z,54.20
2018-07-27T11:40:25.746Z,52.90
2018-07-27T11:42:54.953Z,55.30
2018-07-27T11:45:23.309Z,54.50
2018-07-27T11:47:51.732Z,54.30
2018-07-27T11:50:19.989Z,54.10
2018-07-27T11:52:48.555Z,53.50
2018-07-27T11:55:17.341Z,54.40
2018-07-27T11:57:45.640Z,54.00
2018-07-27T12:00:14.240Z,54.20
2018-07-27T12:02:43.005Z,52.30
2018-07-27T12:07:39.421Z,55.50
2018-07-27T12:10:07.990Z,56.10
2018-07-27T12:12:36.310Z,55.30
2018-07-27T12:15:05.147Z,53.60
2018-07-27T12:17:33.213Z,55.30
2018-07-27T12:20:01.737Z,55.80
2018-07-27T12:22:30.030Z,53.90
2018-07-27T12:24:58.357Z,56.90
2018-07-27T12:27:26.626Z,54.20
2018-07-27T12:29:54.866Z,53.80
2018-07-27T12:32:23.173Z,53.70
2018-07-27T12:34:51.414Z,54.60
2018-07-27T12:37:19.735Z,53.70
2018-07-27T12:39:47.983Z,54.10
2018-07-27T12:42:16.243Z,53.90
2018-07-27T12:44:44.566Z,54.80
2018-07-27T12:47:12.859Z,53.20
2018-07-27T12:49:41.242Z,54.00
2018-07-27T12:52:09.634Z,54.60
2018-07-27T12:54:38.117Z,54.40
2018-07-27T12:57:06.412Z,54.20
2018-07-27T12:59:34.961Z,55.40
2018-07-27T13:02:03.269Z,53.90
2018-07-27T13:04:31.789Z,53.90
2018-07-27T13:07:00.986Z,53.00
2018-07-27T13:09:29.276Z,52.90
2018-07-27T13:11:57.541Z,54.10
2018-07-27T13:14:26.069Z,53.90
2018-07-27T13:16:54.366Z,54.40
2018-07-27T13:19:24.465Z,54.50
2018-07-27T13:21:53.010Z,53.90
2018-07-27T13:24:21.162Z,53.20
2018-07-27T13:26:49.420Z,52.20
2018-07-27T13:29:17.677Z,53.40
2018-07-27T13:31:56.076Z,52.90
2018-07-27T13:37:05.961Z,52.90
2018-07-27T13:39:34.764Z,52.70
2018-07-27T13:42:04.054Z,53.10
2018-07-27T13:44:33.394Z,52.10
2018-07-27T13:47:02.251Z,52.10
2018-07-27T13:49:30.505Z,52.20
2018-07-27T13:51:59.223Z,52.10
2018-07-27T13:54:28.235Z,52.50
2018-07-27T13:56:57.141Z,52.90
2018-07-27T14:01:53.445Z,52.90
2018-07-27T14:04:21.771Z,55.00
2018-07-27T14:06:51.333Z,52.90
2018-07-27T14:09:19.644Z,53.80
2018-07-27T14:11:47.938Z,54.30
2018-07-27T14:14:16.256Z,53.30
2018-07-27T14:16:44.501Z,53.20
2018-07-27T14:19:13.543Z,52.60
2018-07-27T14:21:42.501Z,54.20
2018-07-27T14:24:10.805Z,53.40
2018-07-27T14:26:39.284Z,52.70
2018-07-27T14:29:08.626Z,52.40
2018-07-27T14:31:36.881Z,52.00
2018-07-27T14:34:05.357Z,51.80
2018-07-27T14:36:33.631Z,52.90
2018-07-27T14:39:01.912Z,52.30
2018-07-27T14:41:31.086Z,52.40
2018-07-27T14:43:59.397Z,52.10
2018-07-27T14:46:27.636Z,51.70
2018-07-27T14:48:56.080Z,50.50
2018-07-27T14:51:24.969Z,51.60
2018-07-27T14:53:53.793Z,51.10
2018-07-27T14:56:22.104Z,52.10
2018-07-27T14:58:50.484Z,52.20
2018-07-27T15:01:18.827Z,51.90
2018-07-27T15:06:15.120Z,52.30
2018-07-27T15:08:43.469Z,52.80
2018-07-27T15:11:11.741Z,54.10
2018-07-27T15:13:40.280Z,54.70
2018-07-27T15:16:08.964Z,53.90
2018-07-27T15:18:37.284Z,54.20
2018-07-27T15:21:05.530Z,54.60
2018-07-27T15:23:34.295Z,51.70
2018-07-27T15:26:03.465Z,50.30
2018-07-27T15:28:32.501Z,50.90
2018-07-27T15:31:01.492Z,49.50
2018-07-27T15:33:30.365Z,49.40
2018-07-27T15:35:58.805Z,49.20
2018-07-27T15:38:27.149Z,49.20
2018-07-27T15:40:55.453Z,50.10
2018-07-27T15:43:23.741Z,50.90
2018-07-27T15:45:53.034Z,50.40
2018-07-27T15:48:22.323Z,50.50
2018-07-27T15:50:50.579Z,51.20
2018-07-27T15:53:18.985Z,50.90
2018-07-27T15:55:47.325Z,50.90
2018-07-27T15:58:15.605Z,50.60
2018-07-27T16:00:44.036Z,50.00
2018-07-27T16:03:12.753Z,50.90
2018-07-27T16:05:41.393Z,51.20
2018-07-27T16:08:09.786Z,51.20
2018-07-27T16:10:38.685Z,51.10
2018-07-27T16:13:07.267Z,51.00
2018-07-27T16:15:35.589Z,51.40
2018-07-27T16:18:03.866Z,52.00
2018-07-27T16:20:32.164Z,50.80
2018-07-27T16:23:00.476Z,50.10
2018-07-27T16:25:28.812Z,50.20
2018-07-27T16:27:57.160Z,50.60
2018-07-27T16:32:53.514Z,49.60
2018-07-27T16:35:21.797Z,50.10
2018-07-27T16:37:50.911Z,49.10
2018-07-27T16:40:19.349Z,49.70
2018-07-27T16:42:47.609Z,49.40
2018-07-27T16:45:15.953Z,49.60
2018-07-27T16:47:44.261Z,49.40
2018-07-27T16:50:12.565Z,49.50
2018-07-27T16:52:40.919Z,50.00
2018-07-27T16:55:09.197Z,49.80
2018-07-27T16:57:37.505Z,49.00
2018-07-27T17:00:05.906Z,48.60
2018-07-27T17:02:34.209Z,48.90
2018-07-27T17:05:02.600Z,49.00
2018-07-27T17:07:30.934Z,49.90
2018-07-27T17:12:27.676Z,50.10
2018-07-27T17:14:55.997Z,50.20
2018-07-27T17:17:25.081Z,49.90
2018-07-27T17:19:53.365Z,50.10
2018-07-27T17:22:22.523Z,50.00
2018-07-27T17:24:50.846Z,50.10
2018-07-27T17:27:19.093Z,49.80
2018-07-27T17:34:43.430Z,50.40
2018-07-27T17:37:11.726Z,50.30
2018-07-27T17:39:39.985Z,50.80
2018-07-27T17:42:08.266Z,50.20
2018-07-27T17:44:36.513Z,50.40
2018-07-27T17:47:05.371Z,50.20
2018-07-27T17:49:33.619Z,50.80
2018-07-27T17:52:01.875Z,50.70
2018-07-27T17:54:30.158Z,50.90
2018-07-27T17:56:58.426Z,51.20
2018-07-27T18:01:54.782Z,51.50
2018-07-27T18:04:23.046Z,51.20
2018-07-27T18:06:51.302Z,51.10
2018-07-27T18:09:19.560Z,51.30
2018-07-27T18:11:47.825Z,51.50
2018-07-27T18:14:16.104Z,52.70
2018-07-27T18:16:44.341Z,52.40
2018-07-27T18:19:12.610Z,52.80
2018-07-27T18:21:41.022Z,53.00
2018-07-27T18:24:09.325Z,53.60
2018-07-27T18:26:37.717Z,53.50
2018-07-27T18:29:06.029Z,52.80
2018-07-27T18:31:34.344Z,52.80
2018-07-27T18:34:02.729Z,53.20
2018-07-27T18:36:30.983Z,53.10
2018-07-27T18:38:59.261Z,53.30
2018-07-27T18:41:27.537Z,54.80
2018-07-27T18:43:55.805Z,55.10
2018-07-27T18:46:24.130Z,55.90
2018-07-27T18:48:53.517Z,56.40
2018-07-27T18:51:21.813Z,56.90
2018-07-27T18:53:50.129Z,57.20
2018-07-27T18:56:18.472Z,57.60
2018-07-27T19:01:14.729Z,58.30
2018-07-27T19:03:43.001Z,58.60
2018-07-27T19:06:11.256Z,58.60
2018-07-27T19:08:39.514Z,59.00
2018-07-27T19:13:35.882Z,59.60
2018-07-27T19:16:04.172Z,59.80
2018-07-27T19:18:32.492Z,60.00
2018-07-27T19:21:00.796Z,60.20
2018-07-27T19:23:29.073Z,60.60
2018-07-27T19:25:57.326Z,60.70
2018-07-27T19:28:25.586Z,61.00
2018-07-27T19:30:53.879Z,61.40
2018-07-27T19:33:22.216Z,61.80
2018-07-27T19:35:50.462Z,62.30
2018-07-27T19:38:25.492Z,62.50
2018-07-27T19:40:53.779Z,63.00
2018-07-27T19:43:22.044Z,63.30
2018-07-27T19:45:50.299Z,63.40
2018-07-27T19:48:18.641Z,63.60
2018-07-27T19:50:47.184Z,63.90
2018-07-27T19:53:15.493Z,63.90
2018-07-27T19:55:43.798Z,64.30
2018-07-27T19:58:12.074Z,65.10
2018-07-27T20:00:40.429Z,64.70
2018-07-27T20:03:08.781Z,65.50
2018-07-27T20:05:37.029Z,66.20
2018-07-27T20:08:05.482Z,66.70
2018-07-27T20:10:33.711Z,67.10
2018-07-27T20:13:02.237Z,67.50
2018-07-27T20:15:30.496Z,67.70
2018-07-27T20:17:58.809Z,67.70
2018-07-27T20:20:27.086Z,68.10
2018-07-27T20:22:55.354Z,68.50
2018-07-27T20:25:23.646Z,68.60
2018-07-27T20:27:51.905Z,69.00
2018-07-27T20:30:20.230Z,69.20
2018-07-27T20:32:48.488Z,69.10
2018-07-27T20:35:17.070Z,69.00
2018-07-27T20:37:45.329Z,69.10
2018-07-27T20:40:13.598Z,69.00
2018-07-27T20:42:41.834Z,69.20
2018-07-27T20:45:10.671Z,69.30
2018-07-27T20:47:38.966Z,69.60
2018-07-27T20:50:07.925Z,69.90
2018-07-27T20:52:36.162Z,70.20
2018-07-27T20:55:04.480Z,70.50
2018-07-27T20:57:32.834Z,72.10
2018-07-27T21:00:01.096Z,72.30
2018-07-27T21:04:57.373Z,72.70
2018-07-27T21:07:25.894Z,72.70
2018-07-27T21:09:54.214Z,73.10
2018-07-27T21:12:22.405Z,73.10
2018-07-27T21:14:50.653Z,73.20
2018-07-27T21:17:19.021Z,73.10
2018-07-27T21:19:47.460Z,73.20
2018-07-27T21:22:15.859Z,73.50
2018-07-27T21:24:44.104Z,73.50
2018-07-27T21:27:12.411Z,73.80
2018-07-27T21:29:40.983Z,74.00
2018-07-27T21:32:09.503Z,74.20
2018-07-27T21:34:37.817Z,74.10
2018-07-27T21:39:34.173Z,74.90
2018-07-27T21:42:02.471Z,74.40
2018-07-27T21:44:30.833Z,75.40
2018-07-27T21:46:59.073Z,75.50
2018-07-27T21:49:27.647Z,75.50
2018-07-27T21:51:55.885Z,75.60
2018-07-27T21:54:24.139Z,76.70
2018-07-27T21:56:52.444Z,76.20
2018-07-27T21:59:20.729Z,76.80
2018-07-27T22:01:49.069Z,77.10
2018-07-27T22:04:17.613Z,77.40
2018-07-27T22:06:45.889Z,77.40
2018-07-27T22:09:14.146Z,78.10
2018-07-27T22:11:42.406Z,78.30
2018-07-27T22:14:10.908Z,78.70
2018-07-27T22:16:39.166Z,79.10
2018-07-27T22:19:07.452Z,79.30
2018-07-27T22:21:35.706Z,79.60
2018-07-27T22:24:04.075Z,79.80
2018-07-27T22:26:32.473Z,80.10
2018-07-27T22:29:00.727Z,80.50
2018-07-27T22:31:29.054Z,81.00
2018-07-27T22:33:57.334Z,81.30
2018-07-27T22:36:25.658Z,82.30
2018-07-27T22:38:54.098Z,82.60
2018-07-27T22:41:22.505Z,82.50
2018-07-27T22:43:50.766Z,83.10
2018-07-27T22:46:19.061Z,84.20
2018-07-27T22:48:47.323Z,83.60
2018-07-27T22:51:15.622Z,84.30
2018-07-27T22:53:43.884Z,84.40
2018-07-27T22:56:12.186Z,84.90
2018-07-27T22:58:40.449Z,85.20
2018-07-27T23:01:09.590Z,85.30
2018-07-27T23:03:38.118Z,85.40
2018-07-27T23:06:06.460Z,86.10
2018-07-27T23:08:34.711Z,86.00
2018-07-27T23:11:03.024Z,86.20
2018-07-27T23:13:31.364Z,86.20
2018-07-27T23:15:59.681Z,86.10
2018-07-27T23:18:27.935Z,88.00
2018-07-27T23:23:24.185Z,87.70
2018-07-27T23:25:52.483Z,87.70
2018-07-27T23:28:20.930Z,87.90
2018-07-27T23:30:49.202Z,88.30
2018-07-27T23:33:17.762Z,88.90
2018-07-27T23:35:46.046Z,89.40
2018-07-27T23:38:14.637Z,89.80
2018-07-27T23:40:42.938Z,89.90
2018-07-27T23:43:11.364Z,90.10
2018-07-27T23:45:39.645Z,90.40
2018-07-27T23:48:07.881Z,90.60
2018-07-27T23:50:36.156Z,91.00
2018-07-27T23:55:32.851Z,91.40
2018-07-27T23:58:01.220Z,91.70
